createdAt,value
2022-12-16T00:00:30.012Z,9.90
2022-12-16T00:02:58.670Z,9.48
2022-12-16T00:05:25.331Z,10.60
2022-12-16T00:07:51.979Z,10.65
2022-12-16T00:10:18.652Z,10.30
2022-12-16T00:12:45.374Z,10.00
2022-12-16T00:15:12.076Z,10.68
2022-12-16T00:17:39.707Z,10.80
2022-12-16T00:20:06.593Z,9.40
2022-12-16T00:22:33.208Z,9.63
2022-12-16T00:24:59.848Z,8.57
2022-12-16T00:27:26.595Z,9.25
2022-12-16T00:29:53.198Z,9.18
2022-12-16T00:32:20.661Z,8.95
2022-12-16T00:34:47.547Z,8.93
2022-12-16T00:37:14.354Z,9.15
2022-12-16T00:39:40.960Z,9.35
2022-12-16T00:42:07.650Z,9.82
2022-12-16T00:44:34.650Z,8.75
2022-12-16T00:47:01.314Z,8.52
2022-12-16T00:49:28.096Z,8.55
2022-12-16T00:51:54.701Z,9.00
2022-12-16T00:54:21.960Z,8.18
2022-12-16T00:56:48.554Z,8.65
2022-12-16T00:59:15.184Z,8.32
2022-12-16T01:01:41.984Z,8.35
2022-12-16T01:04:08.743Z,8.40
2022-12-16T01:06:35.422Z,8.13
2022-12-16T01:09:02.056Z,8.82
2022-12-16T01:11:28.719Z,9.20
2022-12-16T01:13:55.427Z,8.57
2022-12-16T01:16:22.161Z,8.38
2022-12-16T01:18:48.920Z,8.43
2022-12-16T01:21:15.787Z,8.43
2022-12-16T01:23:42.603Z,8.02
2022-12-16T01:26:09.692Z,8.20
2022-12-16T01:28:36.291Z,8.57
2022-12-16T01:31:03.038Z,8.50
2022-12-16T01:33:31.277Z,8.35
2022-12-16T01:36:08.066Z,7.55
2022-12-16T01:38:35.088Z,8.68
2022-12-16T01:41:02.132Z,8.80
2022-12-16T01:43:31.208Z,8.68
2022-12-16T01:46:21.517Z,9.20
2022-12-16T01:48:53.807Z,8.75
2022-12-16T01:51:38.134Z,8.73
2022-12-16T01:54:04.879Z,8.80
2022-12-16T01:56:33.056Z,8.68
2022-12-16T01:58:59.985Z,8.68
2022-12-16T02:01:26.759Z,8.57
2022-12-16T02:03:54.332Z,8.40
2022-12-16T02:06:21.141Z,8.93
2022-12-16T02:08:50.324Z,9.38
2022-12-16T02:11:20.099Z,8.20
2022-12-16T02:14:04.837Z,8.57
2022-12-16T02:16:35.774Z,8.95
2022-12-16T02:19:02.518Z,9.02
2022-12-16T02:21:55.593Z,8.25
2022-12-16T02:24:30.975Z,9.30
2022-12-16T02:26:57.683Z,9.13
2022-12-16T02:29:43.139Z,10.15
2022-12-16T02:32:18.700Z,9.90
2022-12-16T02:34:48.407Z,9.48
2022-12-16T02:37:20.798Z,9.20
2022-12-16T02:39:56.926Z,8.52
2022-12-16T02:42:23.517Z,9.18
2022-12-16T02:44:52.973Z,8.98
2022-12-16T02:47:19.625Z,9.20
2022-12-16T02:49:50.665Z,8.95
2022-12-16T02:52:19.132Z,9.10
2022-12-16T02:54:46.434Z,9.65
2022-12-16T02:57:21.524Z,9.15
2022-12-16T02:59:59.845Z,9.57
2022-12-16T03:02:31.058Z,9.40
2022-12-16T03:05:01.333Z,9.23
2022-12-16T03:07:29.143Z,8.85
2022-12-16T03:09:57.634Z,9.00
2022-12-16T03:12:24.402Z,9.23
2022-12-16T03:14:53.378Z,8.93
2022-12-16T03:17:21.584Z,9.82
2022-12-16T03:19:51.186Z,10.20
2022-12-16T03:22:20.622Z,9.93
2022-12-16T03:24:47.704Z,9.57
2022-12-16T03:27:14.365Z,8.57
2022-12-16T03:29:40.950Z,9.57
2022-12-16T03:32:15.558Z,9.60
2022-12-16T03:34:48.849Z,9.32
2022-12-16T03:37:15.553Z,9.77
2022-12-16T03:39:47.429Z,10.52
2022-12-16T03:42:15.593Z,9.55
2022-12-16T03:44:43.489Z,9.20
2022-12-16T03:47:11.147Z,9.02
2022-12-16T03:49:37.761Z,9.60
2022-12-16T03:52:04.499Z,10.93
2022-12-16T03:54:31.196Z,10.18
2022-12-16T03:56:58.066Z,10.10
2022-12-16T03:59:24.747Z,9.77
2022-12-16T04:01:51.657Z,10.30
2022-12-16T04:04:18.488Z,10.38
2022-12-16T04:06:45.112Z,10.27
2022-12-16T04:09:11.691Z,11.27
2022-12-16T04:11:58.555Z,9.98
2022-12-16T04:14:45.920Z,10.60
2022-12-16T04:17:34.294Z,12.00
2022-12-16T04:20:19.583Z,13.15
2022-12-16T04:23:05.172Z,13.05
2022-12-16T04:25:32.741Z,13.38
2022-12-16T04:27:59.793Z,13.25
2022-12-16T04:30:27.740Z,13.13
2022-12-16T04:33:25.128Z,12.68
2022-12-16T04:36:10.439Z,13.35
2022-12-16T04:38:55.571Z,13.20
2022-12-16T04:41:40.881Z,12.85
2022-12-16T04:44:26.205Z,12.77
2022-12-16T04:47:11.571Z,13.40
2022-12-16T04:49:56.844Z,13.32
2022-12-16T04:52:42.185Z,13.38
2022-12-16T04:55:28.027Z,13.82
2022-12-16T04:58:13.916Z,13.57
2022-12-16T05:00:59.646Z,14.65
2022-12-16T05:03:45.560Z,14.30
2022-12-16T05:06:31.317Z,13.95
2022-12-16T05:09:16.392Z,13.32
2022-12-16T05:12:01.740Z,13.80
2022-12-16T05:14:49.423Z,14.48
2022-12-16T05:17:34.926Z,13.82
2022-12-16T05:20:20.441Z,13.43
2022-12-16T05:23:05.781Z,13.82
2022-12-16T05:25:51.180Z,13.40
2022-12-16T05:28:36.464Z,13.85
2022-12-16T05:31:21.655Z,13.23
2022-12-16T05:34:06.949Z,13.95
2022-12-16T05:36:52.229Z,12.73
2022-12-16T05:39:37.572Z,13.77
2022-12-16T05:42:23.019Z,14.38
2022-12-16T05:45:08.114Z,13.43
2022-12-16T05:47:53.723Z,13.45
2022-12-16T05:50:39.105Z,13.48
2022-12-16T05:53:27.042Z,13.88
2022-12-16T05:56:12.230Z,14.38
2022-12-16T05:58:57.687Z,12.95
2022-12-16T06:01:43.045Z,14.48
2022-12-16T06:04:28.594Z,14.80
2022-12-16T06:07:13.947Z,15.25
2022-12-16T06:09:59.235Z,16.40
2022-12-16T06:12:44.482Z,14.82
2022-12-16T06:15:46.962Z,14.75
2022-12-16T06:18:31.955Z,15.95
2022-12-16T06:21:17.123Z,15.35
2022-12-16T06:24:02.268Z,15.48
2022-12-16T06:26:50.904Z,15.88
2022-12-16T06:29:36.532Z,14.52
2022-12-16T06:32:21.798Z,15.35
2022-12-16T06:35:11.338Z,16.63
2022-12-16T06:37:56.746Z,16.13
2022-12-16T06:40:42.004Z,15.13
2022-12-16T06:43:27.107Z,14.77
2022-12-16T06:46:12.551Z,15.13
2022-12-16T06:48:58.026Z,15.82
2022-12-16T06:51:43.349Z,15.65
2022-12-16T06:54:31.206Z,15.85
2022-12-16T06:57:16.766Z,15.73
2022-12-16T07:00:02.093Z,14.20
2022-12-16T07:02:47.560Z,15.65
2022-12-16T07:05:33.170Z,15.95
2022-12-16T07:08:18.245Z,15.57
2022-12-16T07:11:15.617Z,14.93
2022-12-16T07:14:02.291Z,15.48
2022-12-16T07:16:47.800Z,16.58
2022-12-16T07:19:32.948Z,16.10
2022-12-16T07:22:18.407Z,17.38
2022-12-16T07:25:03.972Z,18.15
2022-12-16T07:27:48.918Z,18.27
2022-12-16T07:30:34.168Z,17.67
2022-12-16T07:33:19.368Z,17.63
2022-12-16T07:36:04.524Z,18.02
2022-12-16T07:38:51.040Z,18.88
2022-12-16T07:41:36.097Z,20.17
2022-12-16T07:44:22.474Z,18.88
2022-12-16T07:47:07.796Z,19.42
2022-12-16T07:49:53.751Z,19.10
2022-12-16T07:52:41.178Z,19.58
2022-12-16T07:55:26.743Z,20.35
2022-12-16T07:58:12.207Z,20.00
2022-12-16T08:00:57.541Z,19.27
2022-12-16T08:03:42.783Z,19.73
2022-12-16T08:06:28.314Z,20.30
2022-12-16T08:09:13.782Z,21.00
2022-12-16T08:11:59.136Z,19.83
2022-12-16T08:14:44.518Z,21.25
2022-12-16T08:17:29.540Z,20.70
2022-12-16T08:20:14.866Z,20.50
2022-12-16T08:23:00.290Z,20.75
2022-12-16T08:25:45.717Z,21.33
2022-12-16T08:28:31.166Z,20.73
2022-12-16T08:31:16.438Z,19.98
2022-12-16T08:34:01.828Z,20.75
2022-12-16T08:36:46.887Z,19.95
2022-12-16T08:39:33.750Z,21.70
2022-12-16T08:42:18.867Z,21.50
2022-12-16T08:45:04.178Z,21.10
2022-12-16T08:47:49.512Z,21.08
2022-12-16T08:50:34.698Z,19.58
2022-12-16T08:53:20.175Z,21.55
2022-12-16T08:56:05.628Z,20.67
2022-12-16T08:58:51.109Z,21.02
2022-12-16T09:01:37.539Z,20.50
2022-12-16T09:04:22.981Z,19.83
2022-12-16T09:07:08.240Z,18.75
2022-12-16T09:09:53.664Z,19.67
2022-12-16T09:12:39.386Z,21.67
2022-12-16T09:15:24.797Z,20.98
2022-12-16T09:18:13.903Z,19.00
2022-12-16T09:20:59.147Z,18.20
2022-12-16T09:23:44.488Z,17.85
2022-12-16T09:26:29.699Z,19.65
2022-12-16T09:29:14.944Z,22.25
2022-12-16T09:32:00.335Z,18.80
2022-12-16T09:34:45.338Z,19.58
2022-12-16T09:37:30.406Z,19.17
2022-12-16T09:40:15.673Z,17.40
2022-12-16T09:43:01.155Z,17.75
2022-12-16T09:45:59.443Z,19.05
2022-12-16T09:48:52.414Z,18.77
2022-12-16T09:51:39.404Z,17.90
2022-12-16T09:54:27.670Z,18.10
2022-12-16T09:57:13.101Z,19.17
2022-12-16T10:00:00.344Z,17.95
2022-12-16T10:02:45.563Z,16.92
2022-12-16T10:05:32.011Z,16.70
2022-12-16T10:08:23.781Z,17.42
2022-12-16T10:11:22.726Z,16.33
2022-12-16T10:14:19.282Z,17.25
2022-12-16T10:17:05.059Z,17.00
2022-12-16T10:19:56.709Z,18.02
2022-12-16T10:22:48.729Z,19.05
2022-12-16T10:25:34.222Z,16.55
2022-12-16T10:28:34.741Z,16.88
2022-12-16T10:31:21.460Z,15.85
2022-12-16T10:34:08.923Z,17.58
2022-12-16T10:36:55.678Z,17.27
2022-12-16T10:39:45.453Z,17.77
2022-12-16T10:42:37.295Z,30.33
2022-12-16T10:45:23.217Z,20.58
2022-12-16T10:48:09.100Z,19.45
2022-12-16T10:50:54.977Z,18.33
2022-12-16T10:53:44.354Z,17.48
2022-12-16T10:56:38.935Z,16.85
2022-12-16T10:59:25.050Z,18.30
2022-12-16T11:02:21.203Z,17.85
2022-12-16T11:05:07.298Z,18.52
2022-12-16T11:07:55.937Z,16.42
2022-12-16T11:10:42.193Z,17.65
2022-12-16T11:13:50.878Z,17.65
2022-12-16T11:16:36.487Z,22.40
2022-12-16T11:19:22.314Z,19.35
2022-12-16T11:22:07.733Z,17.85
2022-12-16T11:24:54.212Z,19.05
2022-12-16T11:27:39.393Z,17.98
2022-12-16T11:30:30.914Z,18.98
2022-12-16T11:33:17.872Z,17.55
2022-12-16T11:36:06.833Z,17.30
2022-12-16T11:39:01.425Z,18.05
2022-12-16T11:41:48.530Z,16.73
2022-12-16T11:44:52.746Z,16.92
2022-12-16T11:47:41.181Z,17.00
2022-12-16T11:50:33.216Z,17.00
2022-12-16T11:53:18.901Z,16.83
2022-12-16T11:56:11.106Z,17.27
2022-12-16T11:59:06.107Z,16.50
2022-12-16T12:01:51.316Z,17.23
2022-12-16T12:04:36.956Z,16.67
2022-12-16T12:07:45.017Z,17.77
2022-12-16T12:10:50.475Z,17.00
2022-12-16T12:13:55.225Z,16.25
2022-12-16T12:16:41.156Z,17.08
2022-12-16T12:19:29.432Z,16.40
2022-12-16T12:22:19.356Z,16.60
2022-12-16T12:25:16.621Z,18.08
2022-12-16T12:28:15.406Z,18.15
2022-12-16T12:31:17.533Z,17.77
2022-12-16T12:34:34.996Z,16.80
2022-12-16T12:37:40.632Z,17.02
2022-12-16T12:40:28.532Z,17.10
2022-12-16T12:43:14.652Z,17.98
2022-12-16T12:46:10.108Z,18.08
2022-12-16T12:48:58.363Z,17.15
2022-12-16T12:51:54.445Z,17.98
2022-12-16T12:54:50.410Z,18.83
2022-12-16T12:57:37.672Z,17.05
2022-12-16T13:00:22.887Z,16.27
2022-12-16T13:03:20.663Z,17.98
2022-12-16T13:06:06.219Z,17.23
2022-12-16T13:09:12.292Z,17.92
2022-12-16T13:11:58.814Z,17.98
2022-12-16T13:14:50.408Z,17.40
2022-12-16T13:17:37.122Z,17.80
2022-12-16T13:20:23.315Z,18.60
2022-12-16T13:23:08.625Z,18.63
2022-12-16T13:25:53.730Z,18.13
2022-12-16T13:28:40.571Z,18.88
2022-12-16T13:31:26.850Z,18.08
2022-12-16T13:34:12.604Z,18.25
2022-12-16T13:36:59.023Z,19.25
2022-12-16T13:39:45.515Z,18.88
2022-12-16T13:42:49.749Z,18.42
2022-12-16T13:45:36.385Z,17.60
2022-12-16T13:48:22.656Z,18.73
2022-12-16T13:51:09.217Z,18.25
2022-12-16T13:53:59.490Z,17.65
2022-12-16T13:56:48.887Z,17.92
2022-12-16T13:59:42.977Z,18.85
2022-12-16T14:02:54.849Z,18.23
2022-12-16T14:05:46.236Z,17.00
2022-12-16T14:08:34.585Z,19.15
2022-12-16T14:11:21.574Z,18.50
2022-12-16T14:14:10.946Z,18.95
2022-12-16T14:17:03.497Z,22.02
2022-12-16T14:20:07.688Z,20.52
2022-12-16T14:23:17.904Z,19.92
2022-12-16T14:26:15.226Z,20.40
2022-12-16T14:29:00.577Z,20.60
2022-12-16T14:31:52.699Z,16.35
2022-12-16T14:34:43.194Z,19.00
2022-12-16T14:37:34.510Z,17.65
2022-12-16T14:40:19.938Z,18.00
2022-12-16T14:43:09.888Z,19.17
2022-12-16T14:45:57.908Z,18.17
2022-12-16T14:48:49.505Z,18.13
2022-12-16T14:51:41.295Z,18.02
2022-12-16T14:54:35.934Z,18.10
2022-12-16T14:57:21.179Z,18.08
2022-12-16T15:00:06.858Z,18.48
2022-12-16T15:02:56.152Z,16.63
2022-12-16T15:05:45.119Z,19.52
2022-12-16T15:08:31.322Z,19.30
2022-12-16T15:11:17.644Z,18.38
2022-12-16T15:14:04.134Z,16.92
2022-12-16T15:16:51.747Z,19.42
2022-12-16T15:19:39.705Z,16.75
2022-12-16T15:22:25.094Z,17.63
2022-12-16T15:25:10.453Z,16.55
2022-12-16T15:28:00.616Z,17.38
2022-12-16T15:30:59.166Z,16.52
2022-12-16T15:33:54.980Z,18.17
2022-12-16T15:36:40.009Z,18.73
2022-12-16T15:39:45.581Z,18.52
2022-12-16T15:43:00.133Z,18.15
2022-12-16T15:45:49.518Z,17.05
2022-12-16T15:48:37.669Z,17.58
2022-12-16T15:51:23.149Z,14.93
2022-12-16T15:54:21.514Z,14.13
2022-12-16T15:57:06.762Z,12.77
2022-12-16T15:59:53.993Z,10.98
2022-12-16T16:02:41.043Z,12.45
2022-12-16T16:05:35.946Z,13.38
2022-12-16T16:08:21.334Z,13.18
2022-12-16T16:11:06.895Z,14.38
2022-12-16T16:13:51.913Z,14.38
2022-12-16T16:16:37.419Z,14.43
2022-12-16T16:19:22.694Z,13.90
2022-12-16T16:22:08.072Z,14.30
2022-12-16T16:24:53.641Z,13.35
2022-12-16T16:27:39.038Z,12.02
2022-12-16T16:30:24.641Z,14.00
2022-12-16T16:33:09.900Z,13.23
2022-12-16T16:35:55.294Z,13.35
2022-12-16T16:38:40.718Z,13.63
2022-12-16T16:41:31.988Z,13.02
2022-12-16T16:44:19.869Z,13.57
2022-12-16T16:47:05.808Z,13.38
2022-12-16T16:49:58.359Z,13.38
2022-12-16T16:52:44.910Z,13.32
2022-12-16T16:55:40.521Z,14.00
2022-12-16T16:58:33.818Z,13.95
2022-12-16T17:01:19.250Z,13.85
2022-12-16T17:04:04.879Z,10.10
2022-12-16T17:06:51.046Z,12.27
2022-12-16T17:09:36.338Z,13.63
2022-12-16T17:12:28.165Z,11.57
2022-12-16T17:15:13.382Z,11.50
2022-12-16T17:17:58.719Z,12.98
2022-12-16T17:20:43.931Z,10.75
2022-12-16T17:23:43.014Z,12.10
2022-12-16T17:26:29.011Z,10.18
2022-12-16T17:29:14.475Z,11.80
2022-12-16T17:31:59.428Z,10.50
2022-12-16T17:34:44.865Z,11.90
2022-12-16T17:37:29.941Z,11.57
2022-12-16T17:40:15.068Z,9.95
2022-12-16T17:43:00.184Z,10.55
2022-12-16T17:45:45.563Z,10.65
2022-12-16T17:48:31.108Z,10.32
2022-12-16T17:51:16.421Z,10.57
2022-12-16T17:54:07.596Z,9.95
2022-12-16T17:56:57.535Z,9.75
2022-12-16T17:59:42.837Z,8.98
2022-12-16T18:02:31.495Z,10.25
2022-12-16T18:05:17.083Z,9.05
2022-12-16T18:08:02.441Z,9.15
2022-12-16T18:10:47.729Z,9.73
2022-12-16T18:13:33.412Z,9.63
2022-12-16T18:16:18.867Z,8.43
2022-12-16T18:19:07.264Z,8.43
2022-12-16T18:21:52.525Z,9.10
2022-12-16T18:24:37.761Z,8.15
2022-12-16T18:27:23.148Z,7.45
2022-12-16T18:30:08.328Z,8.93
2022-12-16T18:32:53.529Z,9.13
2022-12-16T18:35:41.390Z,8.25
2022-12-16T18:38:26.828Z,8.07
2022-12-16T18:41:19.643Z,7.65
2022-12-16T18:44:04.917Z,7.45
2022-12-16T18:46:51.812Z,7.38
2022-12-16T18:49:36.779Z,6.60
2022-12-16T18:52:22.122Z,7.43
2022-12-16T18:55:07.513Z,6.88
2022-12-16T18:57:52.779Z,6.80
2022-12-16T19:00:38.243Z,6.78
2022-12-16T19:03:23.405Z,7.38
2022-12-16T19:06:15.367Z,7.22
2022-12-16T19:09:00.733Z,7.32
2022-12-16T19:11:45.971Z,7.03
2022-12-16T19:14:31.585Z,7.50
2022-12-16T19:17:16.951Z,7.60
2022-12-16T19:20:02.322Z,8.15
2022-12-16T19:22:47.586Z,8.45
2022-12-16T19:25:32.914Z,7.63
2022-12-16T19:28:18.286Z,8.23
2022-12-16T19:31:12.037Z,7.55
2022-12-16T19:33:57.153Z,7.63
2022-12-16T19:36:46.632Z,7.32
2022-12-16T19:39:32.479Z,8.48
2022-12-16T19:42:17.842Z,8.55
2022-12-16T19:45:03.154Z,7.65
2022-12-16T19:47:48.597Z,7.60
2022-12-16T19:50:33.890Z,7.90
2022-12-16T19:53:19.114Z,8.80
2022-12-16T19:56:04.367Z,8.40
2022-12-16T19:58:49.837Z,8.13
2022-12-16T20:01:35.026Z,9.50
2022-12-16T20:04:20.476Z,7.38
2022-12-16T20:07:05.595Z,8.13
2022-12-16T20:09:51.741Z,7.88
2022-12-16T20:12:37.076Z,8.43
2022-12-16T20:15:22.466Z,8.50
2022-12-16T20:18:07.712Z,7.43
2022-12-16T20:20:53.244Z,8.43
2022-12-16T20:23:40.805Z,8.48
2022-12-16T20:26:25.804Z,9.00
2022-12-16T20:29:11.015Z,8.05
2022-12-16T20:31:56.244Z,8.48
2022-12-16T20:34:41.403Z,9.02
2022-12-16T20:37:26.477Z,8.68
2022-12-16T20:40:11.560Z,8.40
2022-12-16T20:42:56.789Z,7.93
2022-12-16T20:45:42.136Z,8.63
2022-12-16T20:48:31.336Z,7.95
2022-12-16T20:51:22.563Z,7.93
2022-12-16T20:54:11.414Z,9.02
2022-12-16T20:56:56.643Z,9.48
2022-12-16T20:59:58.820Z,8.75
2022-12-16T21:02:44.335Z,9.68
2022-12-16T21:05:29.348Z,9.30
2022-12-16T21:08:14.400Z,8.90
2022-12-16T21:10:59.574Z,9.05
2022-12-16T21:13:45.533Z,8.55
2022-12-16T21:16:30.953Z,8.18
2022-12-16T21:19:16.190Z,9.00
2022-12-16T21:22:01.633Z,8.95
2022-12-16T21:24:46.881Z,9.35
2022-12-16T21:27:32.228Z,8.90
2022-12-16T21:30:17.587Z,10.65
2022-12-16T21:33:02.971Z,10.18
2022-12-16T21:35:48.291Z,9.65
2022-12-16T21:38:33.722Z,10.13
2022-12-16T21:41:19.131Z,10.40
2022-12-16T21:44:04.195Z,10.98
2022-12-16T21:46:49.454Z,10.10
2022-12-16T21:49:34.718Z,10.52
2022-12-16T21:52:19.755Z,8.35
2022-12-16T21:55:05.158Z,8.57
2022-12-16T21:57:50.564Z,8.68
2022-12-16T22:00:38.715Z,9.18
2022-12-16T22:03:24.007Z,9.25
2022-12-16T22:06:09.276Z,7.78
2022-12-16T22:08:54.790Z,8.70
2022-12-16T22:11:41.607Z,10.05
2022-12-16T22:14:26.740Z,9.10
2022-12-16T22:17:12.171Z,9.80
2022-12-16T22:19:57.531Z,8.15
2022-12-16T22:22:43.129Z,8.80
2022-12-16T22:25:28.508Z,9.32
2022-12-16T22:28:13.800Z,8.75
2022-12-16T22:31:19.061Z,9.10
2022-12-16T22:34:07.359Z,9.38
2022-12-16T22:36:52.492Z,9.13
2022-12-16T22:39:44.911Z,9.27
2022-12-16T22:42:30.309Z,8.77
2022-12-16T22:45:15.529Z,8.35
2022-12-16T22:48:00.827Z,8.95
2022-12-16T22:50:46.240Z,9.35
2022-12-16T22:53:34.532Z,8.80
2022-12-16T22:56:19.922Z,9.40
2022-12-16T22:59:05.192Z,10.00
2022-12-16T23:01:50.766Z,9.27
2022-12-16T23:04:37.006Z,8.68
2022-12-16T23:07:22.322Z,9.10
2022-12-16T23:10:07.777Z,9.05
2022-12-16T23:12:54.070Z,8.27
2022-12-16T23:15:41.716Z,8.57
2022-12-16T23:18:26.762Z,8.50
2022-12-16T23:21:12.068Z,9.13
2022-12-16T23:23:57.423Z,9.13
2022-12-16T23:26:42.860Z,8.63
2022-12-16T23:29:27.856Z,9.23
2022-12-16T23:32:13.044Z,9.20
2022-12-16T23:34:58.178Z,8.52
2022-12-16T23:37:43.426Z,8.48
2022-12-16T23:40:28.603Z,8.43
2022-12-16T23:43:13.754Z,7.90
2022-12-16T23:45:59.238Z,7.55
2022-12-16T23:48:44.407Z,7.55
2022-12-16T23:51:29.772Z,7.55
2022-12-16T23:54:15.047Z,8.93
2022-12-16T23:57:00.374Z,8.93
2022-12-16T23:59:45.700Z,8.50
